Time;durP1;ratioP1;P1;durP2;ratioP2;P2;SDS_P1;SDS_P2;PMS_P1;PMS_P2;Temp;Humidity;BMP_temperature;BMP_pressure;BME280_temperature;BME280_humidity;BME280_pressure;Samples;Min_cycle;Max_cycle;Signal;HPM_P1;HPM_P2
2023/07/12 00:00:20;;;;;;;0.13;0.13;;;;;;;22.82;75.35;99467.75;5050160;28;20220;-77
2023/07/12 00:02:46;;;;;;;2.27;2.07;;;;;;;23.08;73.17;99455.06;5050610;28;20660;-77
2023/07/12 00:05:11;;;;;;;0.57;0.57;;;;;;;23.32;71.83;99461.47;5050782;28;20183;-76
2023/07/12 00:07:36;;;;;;;1.80;1.70;;;;;;;23.47;70.09;99459.25;5049418;28;20183;-77
2023/07/12 00:10:02;;;;;;;0.00;0.00;;;;;;;23.78;68.91;99456.38;5050185;28;20629;-76
2023/07/12 00:12:28;;;;;;;0.03;0.03;;;;;;;23.92;68.12;99450.56;5050560;28;20206;-76
2023/07/12 00:14:53;;;;;;;0.67;0.67;;;;;;;23.97;67.80;99447.25;5050589;28;20700;-77
2023/07/12 00:17:21;;;;;;;0.33;0.33;;;;;;;24.06;67.47;99429.97;5050498;28;20257;-77
2023/07/12 00:19:46;;;;;;;0.00;0.00;;;;;;;24.11;67.02;99421.88;5050183;28;20183;-77
2023/07/12 00:22:12;;;;;;;0.13;0.13;;;;;;;24.19;66.28;99403.00;5050605;28;20202;-77
2023/07/12 00:24:37;;;;;;;1.40;1.10;;;;;;;24.19;66.83;99409.38;5050488;28;20199;-77
2023/07/12 00:27:02;;;;;;;2.23;2.13;;;;;;;24.20;66.55;99404.56;5050629;28;20187;-77
2023/07/12 00:29:28;;;;;;;2.03;1.50;;;;;;;24.24;66.35;99422.03;5049548;28;20180;-77
2023/07/12 00:31:53;;;;;;;0.00;0.00;;;;;;;24.33;65.35;99425.09;5050326;28;20178;-77
2023/07/12 00:34:19;;;;;;;0.10;0.10;;;;;;;24.27;65.38;99416.38;5050400;28;20677;-77
2023/07/12 00:36:44;;;;;;;0.70;0.70;;;;;;;24.26;65.97;99420.38;5050439;28;20179;-77
2023/07/12 00:39:11;;;;;;;1.13;1.13;;;;;;;24.43;64.99;99412.88;5048742;28;20175;-75
2023/07/12 00:42:02;;;;;;;0.00;0.00;;;;;;;24.43;64.96;99409.31;5050283;28;20760;-77
2023/07/12 00:44:47;;;;;;;0.00;0.00;;;;;;;24.58;63.55;99419.75;5050110;28;20233;-77
2023/07/12 00:47:14;;;;;;;0.00;0.00;;;;;;;24.53;64.08;99414.69;5050463;28;20232;-77
2023/07/12 00:49:39;;;;;;;0.00;0.00;;;;;;;24.53;64.17;99420.25;5048479;28;20190;-77
2023/07/12 00:52:13;;;;;;;0.00;0.00;;;;;;;24.53;63.96;99423.06;5050371;28;20183;-77
2023/07/12 00:54:55;;;;;;;0.40;0.40;;;;;;;24.63;63.40;99418.47;5049942;28;20595;-77
2023/07/12 00:57:21;;;;;;;0.10;0.10;;;;;;;24.69;62.82;99421.53;5050292;28;20665;-77
2023/07/12 00:59:47;;;;;;;1.27;1.17;;;;;;;24.64;62.61;99428.41;5049497;28;20610;-77
2023/07/12 01:02:14;;;;;;;0.87;0.87;;;;;;;24.80;61.76;99434.06;5050197;28;20286;-77
2023/07/12 01:04:45;;;;;;;0.40;0.40;;;;;;;24.92;61.14;99446.56;5049940;28;20224;-76
2023/07/12 01:07:11;;;;;;;0.77;0.77;;;;;;;25.13;60.28;99454.50;5050072;28;20212;-77
2023/07/12 01:09:37;;;;;;;1.63;1.53;;;;;;;25.33;59.04;99459.25;5049426;28;20207;-77
2023/07/12 01:12:03;;;;;;;2.27;2.10;;;;;;;25.37;58.59;99449.53;5050141;28;20657;-77
2023/07/12 01:14:28;;;;;;;0.00;0.00;;;;;;;25.42;58.24;99445.44;5050976;28;20203;-77
2023/07/12 01:16:58;;;;;;;1.07;1.07;;;;;;;25.48;58.10;99449.28;5053601;28;20175;-77
2023/07/12 01:19:24;;;;;;;1.13;1.03;;;;;;;25.46;58.21;99451.72;5053161;28;20262;-77
2023/07/12 01:21:53;;;;;;;2.17;2.00;;;;;;;25.57;58.06;99457.06;5053701;28;20592;-77
2023/07/12 01:24:20;;;;;;;1.93;1.50;;;;;;;25.60;58.22;99447.78;5053548;28;20228;-75
2023/07/12 01:26:49;;;;;;;1.47;1.30;;;;;;;25.58;58.43;99461.41;5053692;28;20183;-77
2023/07/12 01:29:15;;;;;;;1.73;1.63;;;;;;;25.52;58.66;99455.59;5053055;28;20244;-76
2023/07/12 01:31:41;;;;;;;3.17;1.63;;;;;;;25.47;58.81;99456.13;5053568;28;20262;-77
2023/07/12 01:34:08;;;;;;;2.80;2.60;;;;;;;25.43;59.34;99452.59;5053475;28;20257;-77
2023/07/12 01:36:34;;;;;;;1.40;1.30;;;;;;;25.47;59.33;99458.91;5053258;28;20183;-77
2023/07/12 01:39:01;;;;;;;0.83;0.73;;;;;;;25.47;59.60;99459.69;5053332;28;20261;-77
2023/07/12 01:41:27;;;;;;;1.60;1.50;;;;;;;25.49;59.38;99450.88;5051608;28;20213;-77
2023/07/12 01:43:53;;;;;;;8.33;2.80;;;;;;;25.54;59.71;99449.53;5053294;28;20290;-77
2023/07/12 01:46:19;;;;;;;5.77;2.90;;;;;;;25.49;59.97;99465.63;5052891;28;20213;-76
2023/07/12 01:48:45;;;;;;;11.33;2.83;;;;;;;25.40;60.83;99467.47;5051906;28;20193;-77
2023/07/12 01:51:11;;;;;;;1.17;1.07;;;;;;;25.23;61.81;99466.66;5052722;28;20179;-76
2023/07/12 01:53:37;;;;;;;2.40;2.20;;;;;;;25.14;62.51;99472.06;5053123;28;20223;-77
2023/07/12 01:56:04;;;;;;;2.00;1.90;;;;;;;24.96;63.52;99469.63;5051764;28;20269;-77
2023/07/12 01:58:30;;;;;;;2.80;2.63;;;;;;;24.80;64.29;99481.56;5052975;28;20190;-77
2023/07/12 02:00:56;;;;;;;3.00;2.70;;;;;;;24.61;65.09;99490.75;5052642;28;20470;-77
2023/07/12 02:03:22;;;;;;;1.70;1.60;;;;;;;24.52;65.12;99502.47;5052788;28;20214;-76
2023/07/12 02:05:47;;;;;;;3.97;2.10;;;;;;;24.26;65.98;99515.31;5052876;28;20662;-77
2023/07/12 02:08:13;;;;;;;2.23;2.03;;;;;;;23.80;69.53;99526.50;5052847;28;20198;-76
2023/07/12 02:10:39;;;;;;;3.70;2.37;;;;;;;23.30;72.61;99549.53;5052290;28;20652;-77
2023/07/12 02:13:05;;;;;;;3.13;2.00;;;;;;;22.71;76.11;99545.06;5052141;28;20264;-76
2023/07/12 02:15:30;;;;;;;4.33;1.60;;;;;;;22.10;80.16;99539.31;5052727;28;20275;-77
2023/07/12 02:17:56;;;;;;;1.40;1.27;;;;;;;21.78;83.39;99549.91;5052656;28;20278;-76
2023/07/12 02:20:22;;;;;;;6.23;1.67;;;;;;;21.55;85.29;99569.91;5051880;28;20183;-77
2023/07/12 02:22:49;;;;;;;2.13;1.93;;;;;;;21.33;86.70;99567.28;5052519;28;20563;-77
2023/07/12 02:25:15;;;;;;;1.00;1.00;;;;;;;21.23;87.86;99595.06;5052565;28;20202;-77
2023/07/12 02:27:41;;;;;;;0.43;0.43;;;;;;;21.15;89.02;99611.00;5052067;28;20620;-76
2023/07/12 02:30:14;;;;;;;1.70;1.60;;;;;;;20.93;90.72;99612.25;5050760;28;20606;-76
2023/07/12 02:32:39;;;;;;;2.43;2.23;;;;;;;20.66;92.54;99609.94;5052213;28;20183;-76
2023/07/12 02:35:05;;;;;;;0.57;0.57;;;;;;;20.59;93.98;99609.97;5051002;28;20268;-76
2023/07/12 02:37:31;;;;;;;1.13;1.13;;;;;;;20.42;95.61;99599.69;5052259;28;20220;-75
2023/07/12 02:39:56;;;;;;;1.80;1.70;;;;;;;20.35;96.50;99600.44;5051811;28;20190;-76
2023/07/12 02:42:22;;;;;;;3.30;1.57;;;;;;;20.24;98.10;99601.66;5052050;28;20300;-77
2023/07/12 02:44:47;;;;;;;0.30;0.27;;;;;;;20.09;99.46;99596.09;5052100;28;20203;-75
2023/07/12 02:47:12;;;;;;;1.53;1.43;;;;;;;20.06;100.00;99593.34;5051952;28;20183;-77
2023/07/12 02:49:39;;;;;;;2.67;2.23;;;;;;;19.98;100.00;99600.09;5051319;28;20265;-77
2023/07/12 02:52:06;;;;;;;5.10;1.60;;;;;;;19.90;100.00;99625.00;5051763;28;20254;-77
2023/07/12 02:54:32;;;;;;;0.57;0.57;;;;;;;19.81;100.00;99630.13;5051454;28;20203;-77
2023/07/12 02:56:58;;;;;;;1.57;1.47;;;;;;;19.82;100.00;99630.97;5052032;28;20596;-77
2023/07/12 02:59:23;;;;;;;0.90;0.90;;;;;;;19.79;100.00;99626.19;5051179;28;20191;-77
2023/07/12 03:01:49;;;;;;;0.43;0.43;;;;;;;19.77;100.00;99642.41;5051429;28;20194;-77
2023/07/12 03:04:14;;;;;;;0.63;0.63;;;;;;;19.76;100.00;99635.28;5051718;28;20249;-77
2023/07/12 03:06:39;;;;;;;0.40;0.40;;;;;;;19.75;100.00;99639.25;5051695;28;20201;-77
2023/07/12 03:09:06;;;;;;;0.00;0.00;;;;;;;19.72;100.00;99640.03;5046363;28;20184;-77
2023/07/12 03:11:31;;;;;;;0.90;0.90;;;;;;;19.72;100.00;99646.38;5049355;28;20171;-77
2023/07/12 03:13:57;;;;;;;1.00;0.93;;;;;;;19.63;100.00;99653.47;5051387;28;20693;-77
2023/07/12 03:16:22;;;;;;;0.40;0.40;;;;;;;19.67;100.00;99663.38;5051514;28;20179;-77
2023/07/12 03:18:48;;;;;;;0.33;0.33;;;;;;;19.65;100.00;99662.19;5051569;28;20191;-77
2023/07/12 03:21:13;;;;;;;1.63;0.93;;;;;;;19.56;100.00;99670.88;5049607;28;20203;-77
2023/07/12 03:23:39;;;;;;;1.17;1.07;;;;;;;19.53;100.00;99677.97;5051171;28;20557;-77
2023/07/12 03:26:04;;;;;;;0.83;0.83;;;;;;;19.58;100.00;99683.16;5051348;28;20649;-77
2023/07/12 03:28:29;;;;;;;2.53;1.60;;;;;;;19.56;100.00;99677.22;5051201;28;20179;-76
2023/07/12 03:31:13;;;;;;;0.37;0.37;;;;;;;19.60;100.00;99691.06;5050988;28;20176;-77
2023/07/12 03:33:39;;;;;;;0.40;0.40;;;;;;;19.60;100.00;99700.19;5051192;28;20285;-77
2023/07/12 03:36:05;;;;;;;0.77;0.77;;;;;;;19.65;100.00;99689.91;5049875;28;20594;-77
2023/07/12 03:38:32;;;;;;;1.53;1.43;;;;;;;19.60;100.00;99704.94;5050065;28;20179;-77
2023/07/12 03:41:01;;;;;;;0.43;0.43;;;;;;;19.53;100.00;99700.16;5050459;28;20243;-77
2023/07/12 03:43:26;;;;;;;1.30;1.07;;;;;;;19.39;100.00;99704.81;5050829;28;20199;-76
2023/07/12 03:45:53;;;;;;;1.00;1.00;;;;;;;19.32;100.00;99703.59;5051291;28;20179;-77
2023/07/12 03:48:19;;;;;;;3.70;1.47;;;;;;;19.26;100.00;99707.13;5051228;28;20194;-78
2023/07/12 03:50:47;;;;;;;0.40;0.40;;;;;;;19.31;100.00;99726.16;5050346;28;20252;-78
2023/07/12 03:53:12;;;;;;;0.50;0.50;;;;;;;19.28;100.00;99738.00;5053306;28;20294;-78
2023/07/12 03:55:42;;;;;;;5.00;0.93;;;;;;;19.22;100.00;99739.53;5052941;28;20484;-78
2023/07/12 03:58:11;;;;;;;13.03;1.43;;;;;;;19.24;100.00;99737.19;5052013;28;20183;-78
2023/07/12 04:00:44;;;;;;;1.03;0.93;;;;;;;19.22;100.00;99731.22;5052045;28;20205;-78
2023/07/12 04:03:11;;;;;;;0.57;0.57;;;;;;;19.27;100.00;99747.50;5052565;28;20234;-78
2023/07/12 04:05:37;;;;;;;2.07;1.40;;;;;;;19.31;100.00;99754.66;5051217;28;20179;-78
2023/07/12 04:08:03;;;;;;;0.90;0.90;;;;;;;19.32;100.00;99774.81;5051986;28;20561;-78
2023/07/12 04:10:28;;;;;;;1.03;1.03;;;;;;;19.36;100.00;99778.41;5051936;28;20186;-78
2023/07/12 04:12:54;;;;;;;1.13;1.10;;;;;;;19.35;100.00;99782.34;5053332;28;20171;-78
2023/07/12 04:15:19;;;;;;;0.80;0.80;;;;;;;19.42;100.00;99790.72;5053263;28;20641;-78
2023/07/12 04:17:45;;;;;;;8.70;0.70;;;;;;;19.50;100.00;99778.47;5053555;28;20708;-82
2023/07/12 04:20:10;;;;;;;0.67;0.67;;;;;;;19.58;100.00;99791.25;5052010;28;20190;-77
2023/07/12 04:22:35;;;;;;;1.33;1.23;;;;;;;19.51;100.00;99788.38;5050748;28;20251;-77
2023/07/12 04:25:01;;;;;;;0.70;0.70;;;;;;;19.58;100.00;99794.00;5052595;28;20221;-78
2023/07/12 04:27:26;;;;;;;0.20;0.20;;;;;;;19.67;100.00;99804.72;5052724;28;20543;-78
2023/07/12 04:29:51;;;;;;;0.90;0.90;;;;;;;19.64;100.00;99813.03;5052169;28;20183;-77
2023/07/12 04:32:17;;;;;;;1.97;1.80;;;;;;;19.57;100.00;99822.91;5053177;28;20179;-78
2023/07/12 04:34:42;;;;;;;0.10;0.10;;;;;;;19.55;100.00;99832.78;5037607;28;20196;-78
2023/07/12 04:37:08;;;;;;;0.37;0.37;;;;;;;19.63;100.00;99847.47;5039445;28;20657;-78
2023/07/12 04:39:33;;;;;;;1.00;0.83;;;;;;;19.63;100.00;99851.03;5051682;28;20179;-78
2023/07/12 04:41:58;;;;;;;0.47;0.47;;;;;;;19.68;100.00;99844.34;5053078;28;20252;-78
2023/07/12 04:44:25;;;;;;;3.30;0.83;;;;;;;19.70;100.00;99847.53;5053035;28;20202;-78
2023/07/12 04:46:50;;;;;;;0.00;0.00;;;;;;;19.77;100.00;99842.81;5047954;28;20171;-76
2023/07/12 04:49:15;;;;;;;0.83;0.70;;;;;;;19.88;100.00;99848.41;5052479;28;20645;-78
2023/07/12 04:51:41;;;;;;;0.47;0.47;;;;;;;19.77;100.00;99834.47;5057271;28;20676;-78
2023/07/12 04:54:06;;;;;;;0.00;0.00;;;;;;;19.91;100.00;99844.84;5057803;28;20205;-76
2023/07/12 04:56:31;;;;;;;0.00;0.00;;;;;;;19.99;100.00;99821.53;5058292;28;20627;-78
2023/07/12 04:58:59;;;;;;;0.57;0.17;;;;;;;20.05;100.00;99844.91;5058271;22;20291;-79
2023/07/12 05:01:25;;;;;;;0.00;0.00;;;;;;;20.11;100.00;99854.47;5036545;28;20240;-80
2023/07/12 05:03:50;;;;;;;1.87;1.40;;;;;;;20.00;100.00;99872.22;5039963;28;20199;-79
2023/07/12 05:06:15;;;;;;;0.77;0.77;;;;;;;19.88;100.00;99888.00;5040159;28;20183;-79
2023/07/12 05:08:41;;;;;;;1.43;1.23;;;;;;;19.76;100.00;99887.53;5025075;28;20175;-78
2023/07/12 05:11:07;;;;;;;1.33;0.80;;;;;;;19.81;100.00;99892.72;5044031;28;20175;-77
2023/07/12 05:13:33;;;;;;;1.43;0.83;;;;;;;19.83;100.00;99895.91;5043770;28;20179;-78
2023/07/12 05:15:59;;;;;;;2.63;0.87;;;;;;;19.79;100.00;99895.88;5041338;28;20172;-77
2023/07/12 05:18:25;;;;;;;1.13;0.83;;;;;;;19.82;100.00;99889.56;5039512;28;20306;-78
2023/07/12 05:20:52;;;;;;;0.93;0.83;;;;;;;19.86;100.00;99900.69;5039401;28;20278;-78
2023/07/12 05:23:18;;;;;;;0.80;0.73;;;;;;;19.81;100.00;99896.28;5024203;28;20243;-80
2023/07/12 05:25:51;;;;;;;0.70;0.70;;;;;;;19.83;100.00;99880.06;5023140;28;20235;-79
2023/07/12 05:28:17;;;;;;;0.70;0.57;;;;;;;19.85;98.40;99890.78;5020922;28;20180;-78
2023/07/12 05:30:42;;;;;;;2.80;0.47;;;;;;;19.88;97.38;99892.78;5040379;28;20207;-78
2023/07/12 05:33:08;;;;;;;1.60;0.40;;;;;;;19.93;96.89;99895.16;5016453;28;20264;-78
2023/07/12 05:35:33;;;;;;;0.37;0.37;;;;;;;19.94;96.62;99909.81;5037168;28;20212;-78
2023/07/12 05:37:58;;;;;;;0.10;0.10;;;;;;;19.89;94.66;99892.38;5023886;28;20176;-81
2023/07/12 05:40:24;;;;;;;0.00;0.00;;;;;;;20.01;94.40;99876.59;5043792;28;20183;-80
2023/07/12 05:42:50;;;;;;;0.20;0.20;;;;;;;20.11;94.17;99879.44;5044648;28;20656;-81
2023/07/12 05:45:15;;;;;;;0.10;0.10;;;;;;;20.15;94.09;99876.66;5041932;28;20192;-80
2023/07/12 05:47:47;;;;;;;0.10;0.10;;;;;;;20.19;93.80;99892.13;5042698;28;20279;-80
2023/07/12 05:50:14;;;;;;;0.30;0.30;;;;;;;20.14;93.45;99897.25;5049176;22;20259;-77
2023/07/12 05:52:39;;;;;;;0.40;0.40;;;;;;;20.14;93.53;99886.97;5028396;28;20271;-77
2023/07/12 05:55:07;;;;;;;0.40;0.40;;;;;;;20.05;92.62;99892.06;5035194;28;20203;-77
2023/07/12 05:57:33;;;;;;;0.30;0.30;;;;;;;19.98;90.74;99889.25;5044619;28;20239;-76
2023/07/12 05:59:59;;;;;;;1.37;0.80;;;;;;;19.84;88.52;99894.72;5025196;28;20200;-77
2023/07/12 06:02:25;;;;;;;0.60;0.60;;;;;;;19.87;89.71;99914.16;5024750;28;20710;-78
2023/07/12 06:04:51;;;;;;;0.40;0.40;;;;;;;19.86;88.16;99918.09;5027956;28;20204;-77
2023/07/12 06:07:16;;;;;;;2.27;0.47;;;;;;;19.83;86.57;99907.81;5042012;28;20621;-77
2023/07/12 06:09:41;;;;;;;0.23;0.23;;;;;;;19.81;86.28;99906.56;5025849;28;20177;-77
2023/07/12 06:12:07;;;;;;;0.27;0.27;;;;;;;19.81;85.84;99901.81;5021504;28;20176;-78
2023/07/12 06:14:33;;;;;;;0.50;0.47;;;;;;;19.92;85.62;99890.81;5025333;28;20207;-77
2023/07/12 06:16:58;;;;;;;0.23;0.23;;;;;;;19.89;85.80;99881.28;5025088;28;20212;-77
2023/07/12 06:19:24;;;;;;;1.53;0.80;;;;;;;19.89;86.18;99875.75;5024660;28;20177;-76
2023/07/12 06:21:49;;;;;;;0.00;0.00;;;;;;;20.02;85.72;99892.06;5025763;28;20215;-78
2023/07/12 06:24:14;;;;;;;0.67;0.67;;;;;;;20.00;84.43;99880.56;5025284;28;20219;-77
2023/07/12 06:26:40;;;;;;;0.13;0.13;;;;;;;20.03;84.60;99877.78;5044061;28;20180;-77
2023/07/12 06:29:05;;;;;;;3.80;0.50;;;;;;;20.08;84.12;99874.63;5048206;28;20272;-77
2023/07/12 06:31:30;;;;;;;0.47;0.40;;;;;;;19.99;83.94;99859.56;5027746;28;20611;-77
2023/07/12 06:34:03;;;;;;;2.03;0.73;;;;;;;19.99;83.40;99859.56;5024668;28;20204;-78
2023/07/12 06:36:29;;;;;;;0.43;0.43;;;;;;;20.02;83.48;99870.66;5028187;28;20176;-77
2023/07/12 06:38:55;;;;;;;0.00;0.00;;;;;;;20.14;83.49;99867.53;5027551;28;20215;-78
2023/07/12 06:41:20;;;;;;;0.00;0.00;;;;;;;20.28;81.94;99849.38;5016500;28;20196;-77
2023/07/12 06:43:45;;;;;;;0.00;0.00;;;;;;;20.49;81.18;99835.56;5030187;28;20729;-77
2023/07/12 06:46:11;;;;;;;0.00;0.00;;;;;;;20.51;80.32;99847.06;5029273;28;20541;-77
2023/07/12 06:48:36;;;;;;;0.00;0.00;;;;;;;20.66;79.78;99854.22;5035663;28;20658;-77
2023/07/12 06:51:02;;;;;;;0.10;0.10;;;;;;;20.72;78.37;99849.91;5041743;28;20189;-77
2023/07/12 06:53:27;;;;;;;0.50;0.40;;;;;;;20.63;77.82;99834.81;5020733;28;20208;-77
2023/07/12 06:55:54;;;;;;;0.17;0.17;;;;;;;20.82;78.27;99869.72;5028062;28;20199;-77
2023/07/12 06:58:19;;;;;;;0.30;0.30;;;;;;;20.84;77.38;99870.16;5024560;28;20199;-77
2023/07/12 07:00:45;;;;;;;0.00;0.00;;;;;;;20.90;76.81;99871.34;5019923;28;20236;-78
2023/07/12 07:03:12;;;;;;;0.10;0.10;;;;;;;21.11;75.96;99871.34;5018779;28;20215;-77
2023/07/12 07:05:42;;;;;;;0.63;0.60;;;;;;;21.22;75.14;99877.69;5020491;28;20181;-77
2023/07/12 07:08:08;;;;;;;0.60;0.60;;;;;;;21.24;74.36;99885.63;5021547;28;20234;-77
2023/07/12 07:10:34;;;;;;;0.10;0.10;;;;;;;21.21;73.70;99878.88;5019144;28;20190;-81
2023/07/12 07:13:00;;;;;;;0.10;0.10;;;;;;;21.34;73.12;99884.88;5019180;28;20717;-79
2023/07/12 07:15:26;;;;;;;0.93;0.27;;;;;;;21.36;72.70;99885.25;5018916;28;20204;-82
2023/07/12 07:17:52;;;;;;;0.30;0.23;;;;;;;21.27;72.43;99871.78;5025352;28;20668;-81
2023/07/12 07:20:17;;;;;;;0.00;0.00;;;;;;;21.44;71.00;99863.81;5029999;28;20177;-77
2023/07/12 07:22:42;;;;;;;0.23;0.20;;;;;;;21.52;71.47;99876.50;5017168;28;20214;-76
2023/07/12 07:25:08;;;;;;;0.13;0.13;;;;;;;21.41;71.06;99870.97;5016697;28;20202;-77
2023/07/12 07:27:33;;;;;;;0.20;0.20;;;;;;;21.54;69.85;99874.91;5012093;28;20559;-76
2023/07/12 07:29:58;;;;;;;0.20;0.20;;;;;;;21.56;68.94;99874.53;5017173;28;20299;-77
2023/07/12 07:32:24;;;;;;;0.90;0.33;;;;;;;21.55;68.10;99856.25;5016349;28;20191;-77
2023/07/12 07:34:49;;;;;;;1.03;0.20;;;;;;;21.58;68.52;99872.94;5016135;28;20218;-77
2023/07/12 07:37:14;;;;;;;0.23;0.23;;;;;;;21.36;67.77;99872.16;5048817;28;20183;-77
2023/07/12 07:39:40;;;;;;;0.23;0.20;;;;;;;21.35;68.51;99872.56;5027067;28;20197;-77
2023/07/12 07:42:06;;;;;;;0.23;0.23;;;;;;;21.44;68.14;99866.59;5018872;28;20233;-77
2023/07/12 07:44:31;;;;;;;0.80;0.50;;;;;;;21.66;69.08;99877.28;5016143;28;20275;-77
2023/07/12 07:46:56;;;;;;;0.30;0.20;;;;;;;21.66;66.26;99863.38;5018091;28;20181;-77
2023/07/12 07:49:21;;;;;;;0.07;0.07;;;;;;;21.54;64.96;99860.22;5016774;28;20258;-77
2023/07/12 07:51:47;;;;;;;0.10;0.10;;;;;;;21.41;64.49;99848.75;5017444;28;20176;-76
2023/07/12 07:54:13;;;;;;;0.20;0.20;;;;;;;21.23;65.50;99853.47;5015127;28;20201;-77
2023/07/12 07:56:39;;;;;;;0.30;0.20;;;;;;;21.29;66.36;99852.72;5016433;28;20197;-77
2023/07/12 07:59:06;;;;;;;0.27;0.20;;;;;;;21.42;67.54;99871.78;5014827;28;20656;-76
2023/07/12 08:01:31;;;;;;;0.30;0.30;;;;;;;21.40;66.73;99872.16;5013413;28;20215;-77
2023/07/12 08:03:56;;;;;;;0.20;0.20;;;;;;;21.35;67.16;99867.78;5015640;28;20693;-77
2023/07/12 08:06:22;;;;;;;3.20;0.37;;;;;;;21.43;67.46;99881.69;5016422;28;20219;-77
2023/07/12 08:08:47;;;;;;;0.00;0.00;;;;;;;21.48;67.64;99876.50;5017789;28;20192;-77
2023/07/12 08:11:12;;;;;;;1.33;0.37;;;;;;;21.65;68.26;99888.81;5016318;28;20184;-76
2023/07/12 08:13:37;;;;;;;0.10;0.10;;;;;;;21.80;67.32;99887.56;5016310;28;20200;-77
2023/07/12 08:16:03;;;;;;;0.20;0.20;;;;;;;21.94;66.96;99898.66;5015809;28;20222;-77
2023/07/12 08:18:28;;;;;;;0.20;0.20;;;;;;;21.97;66.66;99892.28;5015369;28;20181;-77
2023/07/12 08:20:55;;;;;;;0.03;0.03;;;;;;;22.00;66.72;99901.06;5015346;28;20194;-77
2023/07/12 08:23:21;;;;;;;0.10;0.10;;;;;;;21.86;65.99;99897.13;5016180;28;20260;-76
2023/07/12 08:25:49;;;;;;;0.13;0.13;;;;;;;21.67;67.00;99903.09;5012289;28;20553;-77
2023/07/12 08:28:15;;;;;;;0.10;0.10;;;;;;;21.64;65.54;99899.13;5013590;28;20638;-76
2023/07/12 08:30:40;;;;;;;0.00;0.00;;;;;;;21.68;66.40;99915.81;5011569;28;20269;-77
2023/07/12 08:33:06;;;;;;;1.27;0.30;;;;;;;21.54;67.01;99907.47;5013839;28;20194;-77
2023/07/12 08:35:31;;;;;;;8.93;0.67;;;;;;;21.20;67.18;99913.41;5013274;28;20200;-77
2023/07/12 08:37:57;;;;;;;0.30;0.10;;;;;;;21.16;67.66;99909.84;5013436;28;20177;-77
2023/07/12 08:40:23;;;;;;;1.80;0.57;;;;;;;21.14;67.37;99912.25;5013534;28;20466;-77
2023/07/12 08:42:48;;;;;;;2.03;0.73;;;;;;;21.12;67.64;99919.34;5011490;28;20202;-77
2023/07/12 08:45:25;;;;;;;1.90;0.73;;;;;;;21.31;67.51;99921.78;5014382;28;20664;-77
2023/07/12 08:47:57;;;;;;;0.43;0.30;;;;;;;21.25;66.34;99910.25;5012190;28;20188;-77
2023/07/12 08:50:23;;;;;;;0.70;0.70;;;;;;;21.39;66.94;99918.59;5013096;28;20189;-77
2023/07/12 08:52:48;;;;;;;0.77;0.77;;;;;;;21.26;66.78;99924.94;5011794;28;20687;-77
2023/07/12 08:55:18;;;;;;;0.40;0.40;;;;;;;21.17;66.68;99925.34;5012631;28;20204;-76
2023/07/12 08:57:45;;;;;;;6.07;1.70;;;;;;;21.18;67.48;99938.03;5009672;28;20195;-76
2023/07/12 09:00:27;;;;;;;1.13;0.90;;;;;;;21.33;67.51;99941.66;5011263;28;20673;-76
2023/07/12 09:02:52;;;;;;;0.67;0.60;;;;;;;21.28;67.23;99934.50;5011933;28;20644;-76
2023/07/12 09:05:21;;;;;;;1.07;1.03;;;;;;;21.24;67.79;99947.56;5010331;28;20185;-76
2023/07/12 09:08:07;;;;;;;0.00;0.00;;;;;;;21.39;67.74;99949.16;5011793;28;20225;-77
2023/07/12 09:10:50;;;;;;;1.00;0.90;;;;;;;21.16;67.48;99934.06;5010378;28;20287;-76
2023/07/12 09:13:16;;;;;;;0.83;0.83;;;;;;;21.16;68.72;99940.41;5011487;28;20208;-76
2023/07/12 09:15:47;;;;;;;1.13;1.13;;;;;;;21.05;68.02;99934.84;5011724;28;20242;-77
2023/07/12 09:18:30;;;;;;;1.10;1.00;;;;;;;21.00;67.97;99929.69;5011520;28;20184;-76
2023/07/12 09:20:57;;;;;;;1.40;1.30;;;;;;;21.20;68.04;99946.75;5010032;28;20197;-76
2023/07/12 09:23:23;;;;;;;0.73;0.73;;;;;;;21.37;65.82;99934.09;5011515;28;20267;-76
2023/07/12 09:25:55;;;;;;;0.57;0.57;;;;;;;21.54;65.18;99930.50;5011572;28;20177;-77
2023/07/12 09:28:20;;;;;;;1.23;1.20;;;;;;;21.63;65.56;99933.69;5011421;28;20184;-76
2023/07/12 09:30:45;;;;;;;1.17;1.13;;;;;;;21.69;64.71;99936.84;5010892;28;20586;-77
2023/07/12 09:33:23;;;;;;;0.20;0.20;;;;;;;21.90;65.11;99947.97;5010216;28;20289;-77
2023/07/12 09:35:49;;;;;;;0.47;0.47;;;;;;;21.93;65.90;99952.72;5011567;28;20204;-77
2023/07/12 09:38:18;;;;;;;3.00;0.83;;;;;;;22.05;64.79;99967.41;5015294;28;20178;-77
2023/07/12 09:40:46;;;;;;;1.73;1.63;;;;;;;21.88;64.84;99958.69;5014631;28;20181;-77
2023/07/12 09:43:20;;;;;;;0.23;0.23;;;;;;;21.82;65.56;99959.47;5014540;28;20815;-77
2023/07/12 09:45:56;;;;;;;0.60;0.60;;;;;;;21.69;65.89;99973.78;5014970;28;20718;-77
2023/07/12 09:48:45;;;;;;;1.27;1.17;;;;;;;21.72;65.41;99944.41;5014792;28;20273;-76
2023/07/12 09:51:26;;;;;;;0.80;0.80;;;;;;;21.89;65.63;99965.06;5014411;28;20201;-77
2023/07/12 09:54:02;;;;;;;1.97;1.87;;;;;;;22.36;65.23;99988.81;5013774;28;20231;-77
2023/07/12 09:56:47;;;;;;;1.77;1.67;;;;;;;22.16;64.99;99959.88;5014901;28;20227;-76
2023/07/12 09:59:27;;;;;;;0.60;0.60;;;;;;;22.08;65.13;99970.19;5016304;28;20188;-77
2023/07/12 10:01:56;;;;;;;0.70;0.70;;;;;;;21.98;63.26;99974.56;5016411;28;20207;-77
2023/07/12 10:04:38;;;;;;;1.70;1.47;;;;;;;21.71;63.32;99958.72;5015079;28;20211;-77
2023/07/12 10:07:21;;;;;;;1.43;1.33;;;;;;;21.85;63.87;99969.84;5015117;28;20184;-77
2023/07/12 10:09:48;;;;;;;1.00;0.60;;;;;;;21.66;62.77;99957.13;5015815;28;20652;-77
2023/07/12 10:12:29;;;;;;;0.00;0.00;;;;;;;21.68;63.43;99961.09;5014146;28;20230;-76
2023/07/12 10:14:55;;;;;;;1.90;1.73;;;;;;;21.66;63.64;99971.81;5015659;28;20579;-77
2023/07/12 10:17:40;;;;;;;1.13;1.10;;;;;;;21.74;64.83;99980.97;5014133;28;20669;-77
2023/07/12 10:20:16;;;;;;;0.27;0.20;;;;;;;21.87;63.33;99976.59;5015181;28;20189;-76
2023/07/12 10:22:43;;;;;;;0.73;0.63;;;;;;;21.81;63.50;99977.38;5012570;28;20219;-77
2023/07/12 10:25:21;;;;;;;1.17;1.07;;;;;;;21.75;64.05;99962.28;5013361;28;20204;-77
2023/07/12 10:27:56;;;;;;;1.50;1.40;;;;;;;21.79;64.25;99961.06;5013675;28;20774;-77
2023/07/12 10:30:25;;;;;;;0.83;0.83;;;;;;;21.78;64.27;99978.16;5020393;28;20184;-78
2023/07/12 10:33:00;;;;;;;1.20;1.03;;;;;;;21.94;64.69;99972.97;5014449;28;20205;-77
2023/07/12 10:35:41;;;;;;;1.27;1.20;;;;;;;21.91;63.74;99971.00;5016827;28;20172;-77
2023/07/12 10:38:16;;;;;;;0.43;0.43;;;;;;;22.09;63.94;99974.56;5016780;28;20185;-77
2023/07/12 10:40:59;;;;;;;0.63;0.63;;;;;;;22.39;63.63;99985.22;5017579;28;20210;-77
2023/07/12 10:43:48;;;;;;;1.27;1.17;;;;;;;22.94;63.15;99986.63;5020185;28;20242;-77
2023/07/12 10:46:33;;;;;;;0.90;0.90;;;;;;;22.52;62.04;99961.31;5019408;28;20221;-77
2023/07/12 10:49:03;;;;;;;1.87;1.67;;;;;;;22.79;62.61;99985.88;5019094;28;20181;-77
2023/07/12 10:51:35;;;;;;;0.40;0.40;;;;;;;22.97;60.57;99969.06;5018520;28;20258;-77
2023/07/12 10:54:00;;;;;;;0.73;0.73;;;;;;;22.60;58.68;99964.88;5016318;28;20213;-77
2023/07/12 10:56:56;;;;;;;1.53;1.43;;;;;;;22.51;60.14;99970.88;5028009;28;20181;-77
2023/07/12 10:59:33;;;;;;;0.70;0.70;;;;;;;22.87;60.46;99987.47;5038446;22;20176;-89
2023/07/12 11:02:04;;;;;;;3.67;1.10;;;;;;;23.06;59.70;99997.28;5033052;28;20257;-88
2023/07/12 11:04:29;;;;;;;1.03;0.93;;;;;;;22.89;59.89;99987.84;5034844;28;20656;-88
2023/07/12 11:06:56;;;;;;;2.00;1.90;;;;;;;22.66;58.88;99974.38;5027017;28;20273;-89
2023/07/12 11:09:22;;;;;;;0.80;0.80;;;;;;;22.59;59.52;99968.06;5032833;28;20192;-89
2023/07/12 11:11:57;;;;;;;1.80;1.70;;;;;;;22.51;59.00;99976.44;5031937;28;20183;-89
2023/07/12 11:14:46;;;;;;;1.77;1.23;;;;;;;22.46;58.95;99967.72;5029900;28;20272;-88
2023/07/12 11:17:14;;;;;;;0.80;0.80;;;;;;;22.84;60.11;99996.59;5027044;28;20194;-89
2023/07/12 11:19:40;;;;;;;1.53;1.40;;;;;;;22.72;59.91;99971.97;5032256;28;20199;-89
2023/07/12 11:22:14;;;;;;;2.50;1.50;;;;;;;22.66;60.49;99988.31;5032545;28;20697;-88
2023/07/12 11:24:48;;;;;;;1.77;1.67;;;;;;;22.84;60.60;99989.03;5032767;28;20266;-88
2023/07/12 11:27:29;;;;;;;1.60;1.50;;;;;;;23.24;60.02;99999.97;5032725;28;20605;-88
2023/07/12 11:29:56;;;;;;;1.20;1.10;;;;;;;23.42;56.90;99964.38;5024453;28;20247;-88
2023/07/12 11:32:33;;;;;;;3.53;1.70;;;;;;;24.06;56.78;100000.13;5032680;28;20186;-88
2023/07/12 11:35:03;;;;;;;0.70;0.70;;;;;;;23.94;55.60;99978.31;5031327;28;20215;-88